sensor_id;sensor_type;location;lat;lon;timestamp;P1;durP1;ratioP1;P2;durP2;ratioP2
20421;SDS011;10370;53.102;18.034;2023-05-10T00:01:53;13.48;;;7.20;;
20421;SDS011;10370;53.102;18.034;2023-05-10T00:07:20;11.82;;;6.78;;
20421;SDS011;10370;53.102;18.034;2023-05-10T00:12:47;12.95;;;6.95;;
20421;SDS011;10370;53.102;18.034;2023-05-10T00:18:14;11.52;;;6.05;;
20421;SDS011;10370;53.102;18.034;2023-05-10T00:23:39;13.90;;;7.07;;
20421;SDS011;10370;53.102;18.034;2023-05-10T00:29:04;10.93;;;6.80;;
20421;SDS011;10370;53.102;18.034;2023-05-10T00:34:27;12.50;;;6.75;;
20421;SDS011;10370;53.102;18.034;2023-05-10T00:39:53;14.50;;;6.53;;
20421;SDS011;10370;53.102;18.034;2023-05-10T00:45:18;11.95;;;6.28;;
20421;SDS011;10370;53.102;18.034;2023-05-10T00:50:47;11.18;;;6.30;;
20421;SDS011;10370;53.102;18.034;2023-05-10T00:56:12;12.63;;;6.38;;
20421;SDS011;10370;53.102;18.034;2023-05-10T01:06:55;15.82;;;6.68;;
20421;SDS011;10370;53.102;18.034;2023-05-10T01:12:17;11.70;;;6.57;;
20421;SDS011;10370;53.102;18.034;2023-05-10T01:17:43;13.77;;;6.50;;
20421;SDS011;10370;53.102;18.034;2023-05-10T01:29:18;11.43;;;6.30;;
20421;SDS011;10370;53.102;18.034;2023-05-10T01:35:02;12.68;;;6.82;;
20421;SDS011;10370;53.102;18.034;2023-05-10T01:40:46;12.85;;;6.63;;
20421;SDS011;10370;53.102;18.034;2023-05-10T01:46:20;13.80;;;6.80;;
20421;SDS011;10370;53.102;18.034;2023-05-10T01:51:59;11.13;;;6.63;;
20421;SDS011;10370;53.102;18.034;2023-05-10T01:57:32;11.80;;;6.40;;
20421;SDS011;10370;53.102;18.034;2023-05-10T02:02:56;12.93;;;6.53;;
20421;SDS011;10370;53.102;18.034;2023-05-10T02:08:19;12.10;;;6.67;;
20421;SDS011;10370;53.102;18.034;2023-05-10T02:13:49;13.97;;;6.77;;
20421;SDS011;10370;53.102;18.034;2023-05-10T02:19:13;13.40;;;6.82;;
20421;SDS011;10370;53.102;18.034;2023-05-10T02:24:41;10.80;;;6.75;;
20421;SDS011;10370;53.102;18.034;2023-05-10T02:30:07;15.33;;;6.73;;
20421;SDS011;10370;53.102;18.034;2023-05-10T02:35:30;12.80;;;6.83;;
20421;SDS011;10370;53.102;18.034;2023-05-10T02:40:55;13.40;;;6.93;;
20421;SDS011;10370;53.102;18.034;2023-05-10T02:46:19;13.23;;;6.83;;
20421;SDS011;10370;53.102;18.034;2023-05-10T02:51:47;13.83;;;7.27;;
20421;SDS011;10370;53.102;18.034;2023-05-10T02:57:25;9.77;;;6.40;;
20421;SDS011;10370;53.102;18.034;2023-05-10T03:02:50;11.60;;;6.60;;
20421;SDS011;10370;53.102;18.034;2023-05-10T03:08:13;12.17;;;6.77;;
20421;SDS011;10370;53.102;18.034;2023-05-10T03:13:54;14.37;;;7.10;;
20421;SDS011;10370;53.102;18.034;2023-05-10T03:19:31;14.07;;;6.73;;
20421;SDS011;10370;53.102;18.034;2023-05-10T03:25:04;15.80;;;7.67;;
20421;SDS011;10370;53.102;18.034;2023-05-10T03:30:28;14.23;;;6.75;;
20421;SDS011;10370;53.102;18.034;2023-05-10T03:35:56;18.47;;;6.87;;
20421;SDS011;10370;53.102;18.034;2023-05-10T03:41:21;12.20;;;6.80;;
20421;SDS011;10370;53.102;18.034;2023-05-10T03:47:03;11.93;;;6.30;;
20421;SDS011;10370;53.102;18.034;2023-05-10T03:52:28;10.20;;;6.27;;
20421;SDS011;10370;53.102;18.034;2023-05-10T03:58:24;13.30;;;6.40;;
20421;SDS011;10370;53.102;18.034;2023-05-10T04:03:49;16.07;;;6.70;;
20421;SDS011;10370;53.102;18.034;2023-05-10T04:09:24;11.37;;;6.73;;
20421;SDS011;10370;53.102;18.034;2023-05-10T04:14:49;11.93;;;5.90;;
20421;SDS011;10370;53.102;18.034;2023-05-10T04:20:16;13.65;;;6.07;;
20421;SDS011;10370;53.102;18.034;2023-05-10T04:25:42;13.95;;;5.97;;
20421;SDS011;10370;53.102;18.034;2023-05-10T04:31:08;11.68;;;6.32;;
20421;SDS011;10370;53.102;18.034;2023-05-10T04:36:30;12.95;;;5.82;;
20421;SDS011;10370;53.102;18.034;2023-05-10T04:41:57;14.07;;;6.63;;
20421;SDS011;10370;53.102;18.034;2023-05-10T04:47:25;11.77;;;6.03;;
20421;SDS011;10370;53.102;18.034;2023-05-10T04:52:50;9.77;;;5.40;;
20421;SDS011;10370;53.102;18.034;2023-05-10T04:58:16;11.70;;;5.88;;
20421;SDS011;10370;53.102;18.034;2023-05-10T05:03:39;12.13;;;5.60;;
20421;SDS011;10370;53.102;18.034;2023-05-10T05:14:26;11.95;;;6.13;;
20421;SDS011;10370;53.102;18.034;2023-05-10T05:19:51;9.93;;;4.90;;
20421;SDS011;10370;53.102;18.034;2023-05-10T05:25:12;9.07;;;5.55;;
20421;SDS011;10370;53.102;18.034;2023-05-10T05:30:35;14.85;;;5.80;;
20421;SDS011;10370;53.102;18.034;2023-05-10T05:36:04;14.85;;;5.63;;
20421;SDS011;10370;53.102;18.034;2023-05-10T05:41:31;10.32;;;6.03;;
20421;SDS011;10370;53.102;18.034;2023-05-10T05:46:54;15.88;;;5.50;;
20421;SDS011;10370;53.102;18.034;2023-05-10T05:52:16;10.98;;;5.03;;
20421;SDS011;10370;53.102;18.034;2023-05-10T05:57:37;8.48;;;4.90;;
20421;SDS011;10370;53.102;18.034;2023-05-10T06:03:02;14.35;;;5.50;;
20421;SDS011;10370;53.102;18.034;2023-05-10T06:08:24;17.48;;;5.75;;
20421;SDS011;10370;53.102;18.034;2023-05-10T06:13:47;27.42;;;6.63;;
20421;SDS011;10370;53.102;18.034;2023-05-10T06:19:12;12.52;;;5.30;;
20421;SDS011;10370;53.102;18.034;2023-05-10T06:24:36;13.88;;;5.70;;
20421;SDS011;10370;53.102;18.034;2023-05-10T06:30:00;11.05;;;5.68;;
20421;SDS011;10370;53.102;18.034;2023-05-10T06:35:32;12.07;;;5.45;;
20421;SDS011;10370;53.102;18.034;2023-05-10T06:40:53;21.15;;;6.00;;
20421;SDS011;10370;53.102;18.034;2023-05-10T06:46:14;9.63;;;5.28;;
20421;SDS011;10370;53.102;18.034;2023-05-10T06:51:35;22.95;;;6.55;;
20421;SDS011;10370;53.102;18.034;2023-05-10T06:56:59;10.52;;;5.35;;
20421;SDS011;10370;53.102;18.034;2023-05-10T07:02:35;18.17;;;5.07;;
20421;SDS011;10370;53.102;18.034;2023-05-10T07:07:58;14.52;;;5.28;;
20421;SDS011;10370;53.102;18.034;2023-05-10T07:13:19;15.77;;;5.93;;
20421;SDS011;10370;53.102;18.034;2023-05-10T07:18:43;8.75;;;5.22;;
20421;SDS011;10370;53.102;18.034;2023-05-10T07:24:04;11.90;;;5.20;;
20421;SDS011;10370;53.102;18.034;2023-05-10T07:29:30;17.27;;;5.03;;
20421;SDS011;10370;53.102;18.034;2023-05-10T07:34:56;13.15;;;4.93;;
20421;SDS011;10370;53.102;18.034;2023-05-10T07:40:21;9.40;;;4.45;;
20421;SDS011;10370;53.102;18.034;2023-05-10T07:45:43;16.05;;;4.78;;
20421;SDS011;10370;53.102;18.034;2023-05-10T07:51:04;23.67;;;5.13;;
20421;SDS011;10370;53.102;18.034;2023-05-10T07:56:31;20.35;;;5.55;;
20421;SDS011;10370;53.102;18.034;2023-05-10T08:01:54;16.45;;;4.80;;
20421;SDS011;10370;53.102;18.034;2023-05-10T08:07:18;36.20;;;6.35;;
20421;SDS011;10370;53.102;18.034;2023-05-10T08:12:40;7.25;;;4.00;;
20421;SDS011;10370;53.102;18.034;2023-05-10T08:18:03;15.52;;;4.43;;
20421;SDS011;10370;53.102;18.034;2023-05-10T08:23:28;12.73;;;4.80;;
20421;SDS011;10370;53.102;18.034;2023-05-10T08:28:52;12.93;;;4.75;;
20421;SDS011;10370;53.102;18.034;2023-05-10T08:34:13;24.65;;;5.18;;
20421;SDS011;10370;53.102;18.034;2023-05-10T08:39:35;11.82;;;4.30;;
20421;SDS011;10370;53.102;18.034;2023-05-10T08:44:58;11.57;;;4.10;;
20421;SDS011;10370;53.102;18.034;2023-05-10T08:50:20;19.20;;;4.38;;
20421;SDS011;10370;53.102;18.034;2023-05-10T08:55:46;18.38;;;4.70;;
20421;SDS011;10370;53.102;18.034;2023-05-10T09:01:08;13.55;;;4.32;;
20421;SDS011;10370;53.102;18.034;2023-05-10T09:06:33;19.30;;;4.60;;
20421;SDS011;10370;53.102;18.034;2023-05-10T09:11:58;10.90;;;4.85;;
20421;SDS011;10370;53.102;18.034;2023-05-10T09:17:20;12.63;;;4.40;;
20421;SDS011;10370;53.102;18.034;2023-05-10T09:22:43;18.02;;;4.90;;
20421;SDS011;10370;53.102;18.034;2023-05-10T09:28:08;10.75;;;4.20;;
20421;SDS011;10370;53.102;18.034;2023-05-10T09:33:30;11.13;;;4.72;;
20421;SDS011;10370;53.102;18.034;2023-05-10T09:39:07;14.73;;;5.00;;
20421;SDS011;10370;53.102;18.034;2023-05-10T09:44:28;8.05;;;4.22;;
20421;SDS011;10370;53.102;18.034;2023-05-10T09:49:53;8.80;;;4.20;;
20421;SDS011;10370;53.102;18.034;2023-05-10T09:55:19;15.68;;;5.32;;
20421;SDS011;10370;53.102;18.034;2023-05-10T10:00:45;13.60;;;4.10;;
20421;SDS011;10370;53.102;18.034;2023-05-10T10:06:11;10.30;;;4.63;;
20421;SDS011;10370;53.102;18.034;2023-05-10T10:11:48;14.85;;;4.93;;
20421;SDS011;10370;53.102;18.034;2023-05-10T10:17:09;7.03;;;3.90;;
20421;SDS011;10370;53.102;18.034;2023-05-10T10:22:32;16.98;;;4.70;;
20421;SDS011;10370;53.102;18.034;2023-05-10T10:39:00;12.00;;;4.43;;
20421;SDS011;10370;53.102;18.034;2023-05-10T10:55:19;14.77;;;4.70;;
20421;SDS011;10370;53.102;18.034;2023-05-10T11:00:45;19.73;;;5.22;;
20421;SDS011;10370;53.102;18.034;2023-05-10T11:06:06;12.52;;;4.38;;
20421;SDS011;10370;53.102;18.034;2023-05-10T11:11:28;19.85;;;4.88;;
20421;SDS011;10370;53.102;18.034;2023-05-10T11:16:50;28.70;;;5.07;;
20421;SDS011;10370;53.102;18.034;2023-05-10T11:22:12;9.00;;;4.30;;
20421;SDS011;10370;53.102;18.034;2023-05-10T11:27:37;14.65;;;4.05;;
20421;SDS011;10370;53.102;18.034;2023-05-10T11:32:58;18.80;;;4.65;;
20421;SDS011;10370;53.102;18.034;2023-05-10T11:38:19;16.88;;;4.40;;
20421;SDS011;10370;53.102;18.034;2023-05-10T11:43:41;10.73;;;3.67;;
20421;SDS011;10370;53.102;18.034;2023-05-10T11:49:02;15.50;;;4.20;;
20421;SDS011;10370;53.102;18.034;2023-05-10T11:54:31;9.98;;;3.90;;
20421;SDS011;10370;53.102;18.034;2023-05-10T11:59:58;10.82;;;3.90;;
20421;SDS011;10370;53.102;18.034;2023-05-10T12:05:31;18.05;;;4.47;;
20421;SDS011;10370;53.102;18.034;2023-05-10T12:11:03;20.13;;;4.40;;
20421;SDS011;10370;53.102;18.034;2023-05-10T12:16:29;10.88;;;4.00;;
20421;SDS011;10370;53.102;18.034;2023-05-10T12:21:54;16.65;;;4.55;;
20421;SDS011;10370;53.102;18.034;2023-05-10T12:27:19;12.93;;;3.70;;
20421;SDS011;10370;53.102;18.034;2023-05-10T12:32:44;18.83;;;4.53;;
20421;SDS011;10370;53.102;18.034;2023-05-10T12:43:57;12.40;;;3.80;;
20421;SDS011;10370;53.102;18.034;2023-05-10T12:49:20;11.88;;;4.10;;
20421;SDS011;10370;53.102;18.034;2023-05-10T12:54:42;11.32;;;3.72;;
20421;SDS011;10370;53.102;18.034;2023-05-10T13:00:06;10.82;;;4.63;;
20421;SDS011;10370;53.102;18.034;2023-05-10T13:05:30;13.52;;;4.43;;
20421;SDS011;10370;53.102;18.034;2023-05-10T13:10:53;21.08;;;4.50;;
20421;SDS011;10370;53.102;18.034;2023-05-10T13:16:18;10.27;;;4.57;;
20421;SDS011;10370;53.102;18.034;2023-05-10T13:21:41;15.30;;;4.45;;
20421;SDS011;10370;53.102;18.034;2023-05-10T13:27:07;12.80;;;4.63;;
20421;SDS011;10370;53.102;18.034;2023-05-10T13:32:34;10.50;;;4.38;;
20421;SDS011;10370;53.102;18.034;2023-05-10T13:37:58;21.50;;;5.20;;
20421;SDS011;10370;53.102;18.034;2023-05-10T13:43:21;16.10;;;5.20;;
20421;SDS011;10370;53.102;18.034;2023-05-10T13:48:45;12.15;;;4.55;;
20421;SDS011;10370;53.102;18.034;2023-05-10T13:54:11;9.63;;;4.20;;
20421;SDS011;10370;53.102;18.034;2023-05-10T13:59:32;14.43;;;4.53;;
20421;SDS011;10370;53.102;18.034;2023-05-10T14:05:00;10.73;;;4.93;;
20421;SDS011;10370;53.102;18.034;2023-05-10T14:10:22;7.43;;;4.07;;
20421;SDS011;10370;53.102;18.034;2023-05-10T14:15:46;9.45;;;3.97;;
20421;SDS011;10370;53.102;18.034;2023-05-10T14:21:08;15.75;;;4.63;;
20421;SDS011;10370;53.102;18.034;2023-05-10T14:26:32;13.57;;;4.88;;
20421;SDS011;10370;53.102;18.034;2023-05-10T14:31:58;9.25;;;4.35;;
20421;SDS011;10370;53.102;18.034;2023-05-10T14:37:20;10.73;;;4.75;;
20421;SDS011;10370;53.102;18.034;2023-05-10T14:42:48;13.82;;;4.30;;
20421;SDS011;10370;53.102;18.034;2023-05-10T14:48:15;9.05;;;4.57;;
20421;SDS011;10370;53.102;18.034;2023-05-10T14:53:37;16.58;;;4.40;;
20421;SDS011;10370;53.102;18.034;2023-05-10T14:59:02;12.15;;;4.10;;
20421;SDS011;10370;53.102;18.034;2023-05-10T15:04:25;11.85;;;4.25;;
20421;SDS011;10370;53.102;18.034;2023-05-10T15:09:47;14.50;;;4.28;;
20421;SDS011;10370;53.102;18.034;2023-05-10T15:15:17;9.65;;;3.90;;
20421;SDS011;10370;53.102;18.034;2023-05-10T15:20:44;12.30;;;4.47;;
20421;SDS011;10370;53.102;18.034;2023-05-10T15:26:09;17.98;;;4.20;;
20421;SDS011;10370;53.102;18.034;2023-05-10T15:31:33;12.30;;;4.00;;
20421;SDS011;10370;53.102;18.034;2023-05-10T15:36:56;19.48;;;4.20;;
20421;SDS011;10370;53.102;18.034;2023-05-10T15:42:22;17.92;;;6.55;;
20421;SDS011;10370;53.102;18.034;2023-05-10T15:47:48;12.77;;;4.30;;
20421;SDS011;10370;53.102;18.034;2023-05-10T15:53:15;13.85;;;4.43;;
20421;SDS011;10370;53.102;18.034;2023-05-10T15:58:37;7.95;;;3.90;;
20421;SDS011;10370;53.102;18.034;2023-05-10T16:04:05;9.75;;;3.80;;
20421;SDS011;10370;53.102;18.034;2023-05-10T16:09:35;9.95;;;3.85;;
20421;SDS011;10370;53.102;18.034;2023-05-10T16:15:01;17.85;;;3.70;;
20421;SDS011;10370;53.102;18.034;2023-05-10T16:20:29;12.98;;;4.13;;
20421;SDS011;10370;53.102;18.034;2023-05-10T16:25:52;10.23;;;3.90;;
20421;SDS011;10370;53.102;18.034;2023-05-10T16:31:16;15.10;;;4.53;;
20421;SDS011;10370;53.102;18.034;2023-05-10T16:36:39;13.55;;;4.28;;
20421;SDS011;10370;53.102;18.034;2023-05-10T16:42:01;16.30;;;4.70;;
20421;SDS011;10370;53.102;18.034;2023-05-10T16:47:24;11.88;;;3.95;;
20421;SDS011;10370;53.102;18.034;2023-05-10T16:52:47;10.70;;;3.60;;
20421;SDS011;10370;53.102;18.034;2023-05-10T16:58:10;10.38;;;4.00;;
20421;SDS011;10370;53.102;18.034;2023-05-10T17:03:33;10.38;;;3.95;;
20421;SDS011;10370;53.102;18.034;2023-05-10T17:08:57;7.63;;;4.18;;
20421;SDS011;10370;53.102;18.034;2023-05-10T17:14:26;12.60;;;5.13;;
20421;SDS011;10370;53.102;18.034;2023-05-10T17:19:52;10.57;;;4.05;;
20421;SDS011;10370;53.102;18.034;2023-05-10T17:25:15;11.98;;;4.55;;
20421;SDS011;10370;53.102;18.034;2023-05-10T17:30:39;15.68;;;4.63;;
20421;SDS011;10370;53.102;18.034;2023-05-10T17:36:01;13.93;;;4.22;;
20421;SDS011;10370;53.102;18.034;2023-05-10T17:41:25;8.95;;;3.85;;
20421;SDS011;10370;53.102;18.034;2023-05-10T17:46:49;8.52;;;4.22;;
20421;SDS011;10370;53.102;18.034;2023-05-10T17:52:18;18.95;;;4.57;;
20421;SDS011;10370;53.102;18.034;2023-05-10T17:57:48;10.65;;;4.38;;
20421;SDS011;10370;53.102;18.034;2023-05-10T18:03:13;21.30;;;5.13;;
20421;SDS011;10370;53.102;18.034;2023-05-10T18:08:39;13.27;;;4.47;;
20421;SDS011;10370;53.102;18.034;2023-05-10T18:14:04;13.68;;;5.05;;
20421;SDS011;10370;53.102;18.034;2023-05-10T18:19:33;10.73;;;3.88;;
20421;SDS011;10370;53.102;18.034;2023-05-10T18:25:01;7.25;;;4.03;;
20421;SDS011;10370;53.102;18.034;2023-05-10T18:30:25;9.80;;;4.15;;
20421;SDS011;10370;53.102;18.034;2023-05-10T18:35:52;9.52;;;3.78;;
20421;SDS011;10370;53.102;18.034;2023-05-10T18:41:15;13.55;;;4.60;;
20421;SDS011;10370;53.102;18.034;2023-05-10T18:46:38;10.18;;;4.78;;
20421;SDS011;10370;53.102;18.034;2023-05-10T18:52:06;9.60;;;4.57;;
20421;SDS011;10370;53.102;18.034;2023-05-10T18:57:30;10.27;;;4.20;;
20421;SDS011;10370;53.102;18.034;2023-05-10T19:02:53;9.57;;;4.40;;
20421;SDS011;10370;53.102;18.034;2023-05-10T19:08:25;15.25;;;4.70;;
20421;SDS011;10370;53.102;18.034;2023-05-10T19:13:53;14.68;;;5.30;;
20421;SDS011;10370;53.102;18.034;2023-05-10T19:19:15;16.90;;;5.43;;
20421;SDS011;10370;53.102;18.034;2023-05-10T19:24:44;17.30;;;4.85;;
20421;SDS011;10370;53.102;18.034;2023-05-10T19:30:07;14.07;;;4.85;;
20421;SDS011;10370;53.102;18.034;2023-05-10T19:35:36;16.75;;;5.65;;
20421;SDS011;10370;53.102;18.034;2023-05-10T19:41:03;16.50;;;5.00;;
20421;SDS011;10370;53.102;18.034;2023-05-10T19:46:26;14.20;;;5.50;;
20421;SDS011;10370;53.102;18.034;2023-05-10T19:51:49;14.02;;;5.70;;
20421;SDS011;10370;53.102;18.034;2023-05-10T19:57:16;15.63;;;5.65;;
20421;SDS011;10370;53.102;18.034;2023-05-10T20:02:44;14.98;;;6.60;;
20421;SDS011;10370;53.102;18.034;2023-05-10T20:08:06;11.52;;;6.35;;
20421;SDS011;10370;53.102;18.034;2023-05-10T20:13:34;14.07;;;6.47;;
20421;SDS011;10370;53.102;18.034;2023-05-10T20:18:56;16.77;;;6.68;;
20421;SDS011;10370;53.102;18.034;2023-05-10T20:24:18;18.45;;;6.40;;
20421;SDS011;10370;53.102;18.034;2023-05-10T20:29:43;15.40;;;6.55;;
20421;SDS011;10370;53.102;18.034;2023-05-10T20:35:11;15.63;;;6.63;;
20421;SDS011;10370;53.102;18.034;2023-05-10T20:40:33;12.18;;;5.95;;
20421;SDS011;10370;53.102;18.034;2023-05-10T20:45:56;12.73;;;5.60;;
20421;SDS011;10370;53.102;18.034;2023-05-10T20:51:26;14.40;;;5.40;;
20421;SDS011;10370;53.102;18.034;2023-05-10T20:56:54;12.80;;;5.45;;
20421;SDS011;10370;53.102;18.034;2023-05-10T21:02:21;15.43;;;5.53;;
20421;SDS011;10370;53.102;18.034;2023-05-10T21:07:45;9.68;;;5.03;;
20421;SDS011;10370;53.102;18.034;2023-05-10T21:13:15;12.05;;;5.28;;
20421;SDS011;10370;53.102;18.034;2023-05-10T21:18:41;12.70;;;4.97;;
20421;SDS011;10370;53.102;18.034;2023-05-10T21:24:08;9.75;;;4.70;;
20421;SDS011;10370;53.102;18.034;2023-05-10T21:29:33;12.10;;;5.15;;
20421;SDS011;10370;53.102;18.034;2023-05-10T21:35:01;10.05;;;4.47;;
20421;SDS011;10370;53.102;18.034;2023-05-10T21:40:23;11.27;;;4.93;;
20421;SDS011;10370;53.102;18.034;2023-05-10T21:45:48;10.68;;;4.57;;
20421;SDS011;10370;53.102;18.034;2023-05-10T21:51:14;8.75;;;4.63;;
20421;SDS011;10370;53.102;18.034;2023-05-10T21:56:42;8.70;;;4.65;;
20421;SDS011;10370;53.102;18.034;2023-05-10T22:02:07;8.55;;;4.25;;
20421;SDS011;10370;53.102;18.034;2023-05-10T22:07:32;7.97;;;4.65;;
20421;SDS011;10370;53.102;18.034;2023-05-10T22:12:55;9.00;;;4.60;;
20421;SDS011;10370;53.102;18.034;2023-05-10T22:18:21;13.40;;;4.63;;
20421;SDS011;10370;53.102;18.034;2023-05-10T22:23:48;8.68;;;4.72;;
20421;SDS011;10370;53.102;18.034;2023-05-10T22:29:15;9.98;;;4.55;;
20421;SDS011;10370;53.102;18.034;2023-05-10T22:34:39;8.68;;;4.40;;
20421;SDS011;10370;53.102;18.034;2023-05-10T22:40:02;9.05;;;4.85;;
20421;SDS011;10370;53.102;18.034;2023-05-10T22:45:27;8.48;;;4.63;;
20421;SDS011;10370;53.102;18.034;2023-05-10T22:50:54;11.32;;;5.10;;
20421;SDS011;10370;53.102;18.034;2023-05-10T22:56:20;9.07;;;4.60;;
20421;SDS011;10370;53.102;18.034;2023-05-10T23:01:44;13.23;;;5.65;;
20421;SDS011;10370;53.102;18.034;2023-05-10T23:07:10;22.58;;;5.95;;
20421;SDS011;10370;53.102;18.034;2023-05-10T23:12:35;16.65;;;5.60;;
20421;SDS011;10370;53.102;18.034;2023-05-10T23:18:00;11.07;;;5.25;;
20421;SDS011;10370;53.102;18.034;2023-05-10T23:23:27;11.20;;;5.28;;
20421;SDS011;10370;53.102;18.034;2023-05-10T23:28:54;8.93;;;4.90;;
20421;SDS011;10370;53.102;18.034;2023-05-10T23:34:21;11.63;;;5.18;;
20421;SDS011;10370;53.102;18.034;2023-05-10T23:39:48;9.48;;;5.15;;
20421;SDS011;10370;53.102;18.034;2023-05-10T23:45:15;11.15;;;5.47;;
20421;SDS011;10370;53.102;18.034;2023-05-10T23:50:43;9.85;;;5.13;;
20421;SDS011;10370;53.102;18.034;2023-05-10T23:56:03;13.30;;;5.40;;
